createdAt,value
2018-05-12T00:00:27.592Z,21.02
2018-05-12T00:02:55.160Z,21.01
2018-05-12T00:05:22.760Z,21.02
2018-05-12T00:07:50.326Z,21.02
2018-05-12T00:10:17.891Z,21.01
2018-05-12T00:12:45.428Z,21.03
2018-05-12T00:15:12.990Z,21.05
2018-05-12T00:17:40.524Z,21.05
2018-05-12T00:20:08.869Z,21.02
2018-05-12T00:22:37.042Z,21.00
2018-05-12T00:25:04.602Z,20.95
2018-05-12T00:27:32.250Z,20.90
2018-05-12T00:29:59.918Z,20.87
2018-05-12T00:32:27.478Z,20.85
2018-05-12T00:34:55.135Z,20.84
2018-05-12T00:37:22.668Z,20.82
2018-05-12T00:39:50.226Z,20.80
2018-05-12T00:42:17.768Z,20.78
2018-05-12T00:44:45.368Z,20.76
2018-05-12T00:47:12.945Z,20.75
2018-05-12T00:49:40.529Z,20.70
2018-05-12T00:52:08.103Z,20.67
2018-05-12T00:54:35.732Z,20.64
2018-05-12T00:57:03.291Z,20.61
2018-05-12T00:59:30.871Z,20.58
2018-05-12T01:01:58.483Z,20.55
2018-05-12T01:04:26.037Z,20.53
2018-05-12T01:06:53.620Z,20.51
2018-05-12T01:09:21.156Z,20.48
2018-05-12T01:11:48.739Z,20.47
2018-05-12T01:14:16.348Z,20.46
2018-05-12T01:16:43.917Z,20.43
2018-05-12T01:19:11.451Z,20.40
2018-05-12T01:21:38.997Z,20.38
2018-05-12T01:24:06.581Z,20.39
2018-05-12T01:26:34.126Z,20.38
2018-05-12T01:29:01.698Z,20.35
2018-05-12T01:31:29.288Z,20.33
2018-05-12T01:33:56.856Z,20.30
2018-05-12T01:36:24.392Z,20.24
2018-05-12T01:38:51.970Z,20.19
2018-05-12T01:41:19.580Z,20.13
2018-05-12T01:43:47.161Z,20.08
2018-05-12T01:46:14.772Z,20.03
2018-05-12T01:48:42.336Z,19.97
2018-05-12T01:51:09.877Z,19.90
2018-05-12T01:53:37.432Z,19.85
2018-05-12T01:56:05.028Z,19.80
2018-05-12T01:58:32.605Z,19.74
2018-05-12T02:01:00.136Z,19.68
2018-05-12T02:03:27.694Z,19.62
2018-05-12T02:05:55.224Z,19.57
2018-05-12T02:08:22.778Z,19.51
2018-05-12T02:10:50.375Z,19.46
2018-05-12T02:13:17.958Z,19.42
2018-05-12T02:15:46.413Z,19.36
2018-05-12T02:18:14.003Z,19.32
2018-05-12T02:20:41.572Z,19.26
2018-05-12T02:23:09.129Z,19.22
2018-05-12T02:25:36.683Z,19.18
2018-05-12T02:28:04.246Z,19.14
2018-05-12T02:30:31.892Z,19.10
2018-05-12T02:32:59.447Z,19.05
2018-05-12T02:35:27.000Z,19.03
2018-05-12T02:37:54.545Z,18.98
2018-05-12T02:40:22.112Z,18.94
2018-05-12T02:42:49.701Z,18.91
2018-05-12T02:45:17.485Z,18.87
2018-05-12T02:47:45.077Z,18.83
2018-05-12T02:50:12.650Z,18.80
2018-05-12T02:52:40.207Z,18.78
2018-05-12T02:55:07.816Z,18.76
2018-05-12T02:57:35.367Z,18.73
2018-05-12T03:00:02.908Z,18.71
2018-05-12T03:02:30.449Z,18.69
2018-05-12T03:04:57.990Z,18.66
2018-05-12T03:07:25.553Z,18.62
2018-05-12T03:09:53.121Z,18.60
2018-05-12T03:12:20.702Z,18.56
2018-05-12T03:14:48.220Z,18.53
2018-05-12T03:17:15.764Z,18.53
2018-05-12T03:19:43.311Z,18.51
2018-05-12T03:22:10.870Z,18.39
2018-05-12T03:24:38.407Z,18.47
2018-05-12T03:27:05.989Z,18.46
2018-05-12T03:29:33.551Z,18.43
2018-05-12T03:32:01.084Z,18.41
2018-05-12T03:34:28.639Z,18.39
2018-05-12T03:36:56.173Z,18.38
2018-05-12T03:39:23.720Z,18.38
2018-05-12T03:41:51.253Z,18.37
2018-05-12T03:44:18.833Z,18.36
2018-05-12T03:46:46.368Z,18.35
2018-05-12T03:49:13.933Z,18.34
2018-05-12T03:51:41.530Z,18.33
2018-05-12T03:54:09.109Z,18.34
2018-05-12T03:56:36.687Z,18.32
2018-05-12T03:59:04.272Z,18.33
2018-05-12T04:01:31.862Z,18.34
2018-05-12T04:03:59.482Z,18.36
2018-05-12T04:06:38.796Z,18.36
2018-05-12T04:09:18.905Z,18.39
2018-05-12T04:11:58.329Z,18.40
2018-05-12T04:14:25.922Z,18.43
2018-05-12T04:16:53.512Z,18.46
2018-05-12T04:19:21.100Z,18.49
2018-05-12T04:21:48.638Z,18.53
2018-05-12T04:24:16.195Z,18.57
2018-05-12T04:26:43.812Z,18.61
2018-05-12T04:29:11.361Z,18.63
2018-05-12T04:31:38.913Z,18.69
2018-05-12T04:34:06.452Z,18.71
2018-05-12T04:36:33.991Z,18.75
2018-05-12T04:39:01.509Z,18.80
2018-05-12T04:41:29.052Z,18.85
2018-05-12T04:43:56.646Z,18.90
2018-05-12T04:46:24.282Z,18.96
2018-05-12T04:48:51.812Z,19.01
2018-05-12T04:51:19.390Z,19.01
2018-05-12T04:53:46.946Z,19.04
2018-05-12T04:56:14.491Z,19.09
2018-05-12T04:58:42.039Z,19.13
2018-05-12T05:01:09.603Z,19.18
2018-05-12T05:03:37.181Z,19.19
2018-05-12T05:06:04.760Z,19.22
2018-05-12T05:08:32.339Z,19.28
2018-05-12T05:10:59.907Z,19.36
2018-05-12T05:13:27.465Z,19.46
2018-05-12T05:15:55.536Z,19.60
2018-05-12T05:18:23.103Z,19.76
2018-05-12T05:20:50.650Z,19.94
2018-05-12T05:23:18.193Z,20.09
2018-05-12T05:25:45.773Z,20.26
2018-05-12T05:28:13.340Z,20.40
2018-05-12T05:30:40.894Z,20.49
2018-05-12T05:33:08.487Z,20.57
2018-05-12T05:35:36.093Z,20.59
2018-05-12T05:38:03.715Z,20.65
2018-05-12T05:40:31.275Z,20.73
2018-05-12T05:42:58.888Z,20.81
2018-05-12T05:45:26.433Z,20.84
2018-05-12T05:47:54.021Z,20.98
2018-05-12T05:50:21.681Z,21.15
2018-05-12T05:52:49.275Z,21.37
2018-05-12T05:55:16.809Z,21.63
2018-05-12T05:57:44.421Z,21.99
2018-05-12T06:00:11.953Z,22.38
2018-05-12T06:02:39.580Z,22.74
2018-05-12T06:05:07.129Z,23.07
2018-05-12T06:07:34.712Z,23.37
2018-05-12T06:10:02.308Z,23.75
2018-05-12T06:12:29.901Z,24.09
2018-05-12T06:14:57.463Z,24.46
2018-05-12T06:17:26.161Z,24.86
2018-05-12T06:19:54.096Z,25.28
2018-05-12T06:22:21.718Z,25.61
2018-05-12T06:24:49.261Z,26.01
2018-05-12T06:27:16.812Z,26.38
2018-05-12T06:29:44.384Z,26.81
2018-05-12T06:32:11.935Z,27.37
2018-05-12T06:34:39.502Z,27.92
2018-05-12T06:37:07.090Z,28.41
2018-05-12T06:39:34.668Z,28.94
2018-05-12T06:42:02.224Z,29.47
2018-05-12T06:44:29.844Z,29.95
2018-05-12T06:46:57.398Z,30.34
2018-05-12T06:49:25.000Z,30.84
2018-05-12T06:51:52.571Z,31.25
2018-05-12T06:54:20.189Z,31.57
2018-05-12T06:56:47.745Z,31.96
2018-05-12T06:59:15.331Z,32.34
2018-05-12T07:01:42.901Z,32.72
2018-05-12T07:04:10.581Z,33.04
2018-05-12T07:06:38.233Z,33.40
2018-05-12T07:09:05.791Z,33.73
2018-05-12T07:11:33.427Z,34.07
2018-05-12T07:14:01.018Z,34.35
2018-05-12T07:16:28.629Z,34.57
2018-05-12T07:18:56.185Z,34.85
2018-05-12T07:21:23.732Z,34.74
2018-05-12T07:23:51.307Z,34.78
2018-05-12T07:26:18.867Z,34.91
2018-05-12T07:28:46.429Z,35.25
2018-05-12T07:31:14.019Z,35.63
2018-05-12T07:33:41.593Z,35.96
2018-05-12T07:36:09.157Z,36.23
2018-05-12T07:38:36.730Z,36.55
2018-05-12T07:41:04.297Z,36.61
2018-05-12T07:43:32.874Z,36.48
2018-05-12T07:46:00.683Z,36.76
2018-05-12T07:48:28.267Z,37.04
2018-05-12T07:50:56.114Z,37.28
2018-05-12T07:53:23.719Z,37.51
2018-05-12T07:55:51.397Z,37.68
2018-05-12T07:58:19.072Z,37.78
2018-05-12T08:00:46.704Z,37.96
2018-05-12T08:03:14.263Z,38.15
2018-05-12T08:05:41.848Z,38.41
2018-05-12T08:08:09.546Z,38.53
2018-05-12T08:10:37.183Z,38.66
2018-05-12T08:13:04.818Z,38.72
2018-05-12T08:15:32.433Z,38.81
2018-05-12T08:18:00.088Z,38.28
2018-05-12T08:20:27.752Z,38.05
2018-05-12T08:22:55.298Z,37.47
2018-05-12T08:25:22.927Z,36.94
2018-05-12T08:27:50.492Z,36.95
2018-05-12T08:30:18.088Z,37.12
2018-05-12T08:32:45.803Z,36.96
2018-05-12T08:35:14.632Z,36.79
2018-05-12T08:37:42.298Z,37.02
2018-05-12T08:40:09.888Z,37.42
2018-05-12T08:42:37.435Z,37.96
2018-05-12T08:45:05.945Z,38.55
2018-05-12T08:47:33.525Z,39.16
2018-05-12T08:50:01.086Z,39.74
2018-05-12T08:52:28.659Z,40.32
2018-05-12T08:54:56.218Z,41.00
2018-05-12T08:57:23.803Z,41.35
2018-05-12T08:59:51.429Z,41.30
2018-05-12T09:02:19.000Z,41.61
2018-05-12T09:04:46.641Z,42.01
2018-05-12T09:07:14.251Z,42.04
2018-05-12T09:09:41.836Z,41.48
2018-05-12T09:12:09.407Z,41.13
2018-05-12T09:14:36.969Z,41.08
2018-05-12T09:17:04.545Z,41.20
2018-05-12T09:19:32.104Z,41.12
2018-05-12T09:21:59.721Z,41.31
2018-05-12T09:24:27.275Z,41.68
2018-05-12T09:26:54.883Z,42.04
2018-05-12T09:29:22.440Z,41.71
2018-05-12T09:31:50.009Z,41.85
2018-05-12T09:34:17.572Z,41.65
2018-05-12T09:36:45.158Z,41.67
2018-05-12T09:39:12.719Z,41.77
2018-05-12T09:41:40.283Z,41.80
2018-05-12T09:44:07.887Z,41.28
2018-05-12T09:46:35.538Z,40.85
2018-05-12T09:49:03.074Z,40.86
2018-05-12T09:51:30.636Z,41.10
2018-05-12T09:53:58.677Z,40.99
2018-05-12T09:56:26.228Z,40.95
2018-05-12T09:58:53.795Z,41.02
2018-05-12T10:01:21.404Z,41.27
2018-05-12T10:03:49.085Z,41.30
2018-05-12T10:06:16.709Z,41.37
2018-05-12T10:08:44.265Z,41.72
2018-05-12T10:11:11.837Z,41.75
2018-05-12T10:13:39.446Z,42.04
2018-05-12T10:16:07.012Z,42.51
2018-05-12T10:18:34.616Z,42.76
2018-05-12T10:21:02.196Z,43.07
2018-05-12T10:23:29.818Z,43.56
2018-05-12T10:25:57.432Z,43.45
2018-05-12T10:28:25.042Z,43.58
2018-05-12T10:30:52.680Z,43.56
2018-05-12T10:33:20.213Z,43.56
2018-05-12T10:35:47.894Z,43.65
2018-05-12T10:38:15.482Z,43.55
2018-05-12T10:40:43.080Z,43.89
2018-05-12T10:43:10.643Z,44.19
2018-05-12T10:45:38.232Z,44.31
2018-05-12T10:48:05.860Z,44.52
2018-05-12T10:50:33.424Z,44.53
2018-05-12T10:53:01.028Z,44.32
2018-05-12T10:55:28.580Z,44.11
2018-05-12T10:57:56.244Z,44.19
2018-05-12T11:00:23.748Z,44.22
2018-05-12T11:02:51.336Z,44.38
2018-05-12T11:05:18.945Z,44.88
2018-05-12T11:07:46.537Z,44.67
2018-05-12T11:10:14.108Z,44.64
2018-05-12T11:12:41.703Z,44.68
2018-05-12T11:15:09.334Z,44.10
2018-05-12T11:17:36.984Z,43.70
2018-05-12T11:20:04.547Z,43.25
2018-05-12T11:22:32.278Z,43.12
2018-05-12T11:24:59.861Z,43.30
2018-05-12T11:27:27.443Z,42.89
2018-05-12T11:29:55.012Z,42.62
2018-05-12T11:32:22.585Z,42.11
2018-05-12T11:34:50.494Z,41.37
2018-05-12T11:37:18.063Z,40.29
2018-05-12T11:39:45.649Z,39.39
2018-05-12T11:42:13.228Z,38.49
2018-05-12T11:44:41.498Z,37.87
2018-05-12T11:47:09.350Z,37.28
2018-05-12T11:49:36.914Z,36.94
2018-05-12T11:52:04.576Z,36.88
2018-05-12T11:54:32.150Z,36.57
2018-05-12T11:56:59.834Z,35.85
2018-05-12T11:59:27.559Z,35.23
2018-05-12T12:01:55.325Z,34.80
2018-05-12T12:04:22.945Z,34.55
2018-05-12T12:06:50.956Z,34.34
2018-05-12T12:09:18.479Z,34.11
2018-05-12T12:11:46.068Z,33.80
2018-05-12T12:14:13.608Z,33.56
2018-05-12T12:16:41.218Z,33.45
2018-05-12T12:19:08.843Z,33.46
2018-05-12T12:21:36.383Z,33.54
2018-05-12T12:24:03.984Z,33.55
2018-05-12T12:26:31.529Z,33.41
2018-05-12T12:28:59.085Z,33.14
2018-05-12T12:31:26.627Z,32.81
2018-05-12T12:33:54.187Z,32.75
2018-05-12T12:36:21.727Z,32.71
2018-05-12T12:38:49.317Z,32.60
2018-05-12T12:41:16.888Z,32.59
2018-05-12T12:43:44.448Z,32.73
2018-05-12T12:46:12.014Z,32.87
2018-05-12T12:48:39.578Z,32.97
2018-05-12T12:51:07.137Z,32.94
2018-05-12T12:53:34.710Z,32.99
2018-05-12T12:56:02.245Z,33.09
2018-05-12T12:58:29.793Z,33.17
2018-05-12T13:00:57.347Z,33.33
2018-05-12T13:03:24.970Z,33.30
2018-05-12T13:05:52.508Z,33.03
2018-05-12T13:08:20.115Z,32.85
2018-05-12T13:10:47.644Z,32.73
2018-05-12T13:13:15.250Z,32.79
2018-05-12T13:15:42.802Z,32.78
2018-05-12T13:18:10.395Z,32.63
2018-05-12T13:20:38.070Z,32.47
2018-05-12T13:23:05.619Z,32.35
2018-05-12T13:25:33.132Z,32.29
2018-05-12T13:28:00.709Z,32.21
2018-05-12T13:30:28.284Z,32.30
2018-05-12T13:32:55.848Z,32.38
2018-05-12T13:35:23.421Z,32.35
2018-05-12T13:37:51.037Z,32.32
2018-05-12T13:40:18.622Z,32.43
2018-05-12T13:42:46.208Z,32.23
2018-05-12T13:45:13.768Z,32.13
2018-05-12T13:47:41.363Z,32.06
2018-05-12T13:50:08.919Z,31.91
2018-05-12T13:52:36.468Z,31.82
2018-05-12T13:55:04.064Z,31.59
2018-05-12T13:57:31.615Z,31.55
2018-05-12T13:59:59.435Z,31.53
2018-05-12T14:02:27.059Z,31.63
2018-05-12T14:04:54.638Z,31.55
2018-05-12T14:07:23.165Z,31.50
2018-05-12T14:09:50.679Z,31.63
2018-05-12T14:12:18.319Z,31.62
2018-05-12T14:14:45.895Z,31.68
2018-05-12T14:17:13.468Z,31.60
2018-05-12T14:19:41.052Z,31.41
2018-05-12T14:22:08.625Z,31.44
2018-05-12T14:24:36.216Z,31.46
2018-05-12T14:27:03.772Z,31.43
2018-05-12T14:29:31.348Z,31.47
2018-05-12T14:31:58.890Z,31.45
2018-05-12T14:34:26.444Z,31.49
2018-05-12T14:36:54.092Z,31.46
2018-05-12T14:39:22.857Z,31.44
2018-05-12T14:41:50.400Z,31.43
2018-05-12T14:44:18.026Z,31.47
2018-05-12T14:46:45.625Z,31.50
2018-05-12T14:49:13.442Z,31.45
2018-05-12T14:51:40.969Z,31.48
2018-05-12T14:54:08.568Z,31.49
2018-05-12T14:56:36.128Z,31.51
2018-05-12T14:59:03.708Z,31.40
2018-05-12T15:01:31.260Z,31.25
2018-05-12T15:03:58.815Z,31.27
2018-05-12T15:06:27.270Z,31.22
2018-05-12T15:08:54.828Z,31.18
2018-05-12T15:11:22.385Z,31.25
2018-05-12T15:13:49.925Z,31.34
2018-05-12T15:16:17.480Z,31.38
2018-05-12T15:18:45.062Z,31.50
2018-05-12T15:21:12.599Z,31.50
2018-05-12T15:23:40.136Z,31.42
2018-05-12T15:26:07.698Z,31.26
2018-05-12T15:28:35.239Z,31.21
2018-05-12T15:31:02.869Z,31.04
2018-05-12T15:33:30.408Z,30.95
2018-05-12T15:35:57.987Z,30.87
2018-05-12T15:38:25.517Z,31.00
2018-05-12T15:40:53.102Z,31.08
2018-05-12T15:43:20.652Z,31.09
2018-05-12T15:45:48.224Z,31.06
2018-05-12T15:48:15.782Z,31.03
2018-05-12T15:50:43.336Z,31.02
2018-05-12T15:53:10.874Z,30.92
2018-05-12T15:55:38.478Z,30.84
2018-05-12T15:58:06.107Z,30.81
2018-05-12T16:00:33.721Z,30.81
2018-05-12T16:03:01.373Z,30.63
2018-05-12T16:05:28.893Z,30.60
2018-05-12T16:07:56.462Z,30.55
2018-05-12T16:10:24.060Z,30.55
2018-05-12T16:12:51.606Z,30.55
2018-05-12T16:15:19.215Z,30.47
2018-05-12T16:17:46.810Z,30.42
2018-05-12T16:20:14.413Z,30.37
2018-05-12T16:22:41.941Z,30.28
2018-05-12T16:25:09.510Z,30.13
2018-05-12T16:27:37.041Z,29.98
2018-05-12T16:30:04.620Z,29.85
2018-05-12T16:32:32.205Z,29.86
2018-05-12T16:34:59.762Z,29.89
2018-05-12T16:37:27.754Z,29.85
2018-05-12T16:39:55.332Z,29.81
2018-05-12T16:42:22.888Z,29.80
2018-05-12T16:44:50.505Z,29.82
2018-05-12T16:47:18.099Z,29.85
2018-05-12T16:49:45.636Z,29.81
2018-05-12T16:52:13.253Z,29.80
2018-05-12T16:54:40.805Z,29.74
2018-05-12T16:57:08.380Z,29.72
2018-05-12T16:59:35.924Z,29.70
2018-05-12T17:02:03.520Z,29.68
2018-05-12T17:04:31.096Z,29.60
2018-05-12T17:06:58.673Z,29.56
2018-05-12T17:09:26.254Z,29.47
2018-05-12T17:11:54.473Z,29.45
2018-05-12T17:14:22.059Z,29.36
2018-05-12T17:16:49.640Z,29.33
2018-05-12T17:19:17.213Z,29.29
2018-05-12T17:21:44.781Z,29.26
2018-05-12T17:24:12.329Z,29.24
2018-05-12T17:26:40.019Z,29.21
2018-05-12T17:29:07.575Z,29.18
2018-05-12T17:31:35.111Z,29.13
2018-05-12T17:34:02.707Z,29.09
2018-05-12T17:36:30.260Z,29.04
2018-05-12T17:38:57.816Z,28.98
2018-05-12T17:41:25.364Z,28.95
2018-05-12T17:43:52.953Z,28.89
2018-05-12T17:46:20.569Z,28.83
2018-05-12T17:48:48.118Z,28.79
2018-05-12T17:51:15.680Z,28.75
2018-05-12T17:53:43.256Z,28.71
2018-05-12T17:56:10.854Z,28.68
2018-05-12T17:58:38.465Z,28.67
2018-05-12T18:01:06.111Z,28.62
2018-05-12T18:03:33.680Z,28.59
2018-05-12T18:06:01.236Z,28.49
2018-05-12T18:08:28.806Z,28.41
2018-05-12T18:10:56.416Z,28.32
2018-05-12T18:13:23.999Z,28.23
2018-05-12T18:15:51.558Z,28.15
2018-05-12T18:18:19.116Z,28.10
2018-05-12T18:20:46.705Z,28.01
2018-05-12T18:23:14.382Z,27.93
2018-05-12T18:25:41.896Z,27.86
2018-05-12T18:28:09.497Z,27.79
2018-05-12T18:30:37.090Z,27.70
2018-05-12T18:33:04.667Z,27.64
2018-05-12T18:35:32.306Z,27.56
2018-05-12T18:37:59.896Z,27.47
2018-05-12T18:40:27.486Z,27.40
2018-05-12T18:42:55.086Z,27.33
2018-05-12T18:45:22.710Z,27.25
2018-05-12T18:47:50.285Z,27.15
2018-05-12T18:50:17.825Z,27.09
2018-05-12T18:52:45.393Z,27.03
2018-05-12T18:55:12.962Z,26.98
2018-05-12T18:57:40.528Z,26.92
2018-05-12T19:00:08.073Z,26.87
2018-05-12T19:02:35.629Z,26.82
2018-05-12T19:05:03.283Z,26.75
2018-05-12T19:07:30.849Z,26.70
2018-05-12T19:09:58.418Z,26.63
2018-05-12T19:12:26.056Z,26.56
2018-05-12T19:14:53.587Z,26.48
2018-05-12T19:17:21.163Z,26.20
2018-05-12T19:19:48.699Z,26.31
2018-05-12T19:22:16.291Z,26.22
2018-05-12T19:24:43.876Z,26.14
2018-05-12T19:27:11.434Z,26.08
2018-05-12T19:29:38.978Z,26.01
2018-05-12T19:32:06.529Z,25.94
2018-05-12T19:34:34.088Z,25.88
2018-05-12T19:37:01.639Z,25.82
2018-05-12T19:39:29.172Z,25.75
2018-05-12T19:41:56.718Z,25.68
2018-05-12T19:44:24.293Z,25.62
2018-05-12T19:46:51.895Z,25.57
2018-05-12T19:49:19.461Z,25.51
2018-05-12T19:51:47.020Z,25.44
2018-05-12T19:54:14.626Z,25.37
2018-05-12T19:56:42.398Z,25.31
2018-05-12T19:59:09.999Z,25.25
2018-05-12T20:01:37.578Z,25.19
2018-05-12T20:04:05.154Z,25.12
2018-05-12T20:06:32.677Z,25.07
2018-05-12T20:09:00.274Z,25.01
2018-05-12T20:11:27.857Z,24.95
2018-05-12T20:13:55.704Z,24.88
2018-05-12T20:16:23.276Z,24.82
2018-05-12T20:18:50.856Z,24.78
2018-05-12T20:21:18.413Z,24.73
2018-05-12T20:23:46.045Z,24.66
2018-05-12T20:26:13.713Z,24.62
2018-05-12T20:28:42.571Z,24.58
2018-05-12T20:31:10.750Z,24.54
2018-05-12T20:33:38.296Z,24.50
2018-05-12T20:36:05.865Z,24.46
2018-05-12T20:38:33.450Z,24.43
2018-05-12T20:41:00.992Z,24.37
2018-05-12T20:43:28.578Z,24.33
2018-05-12T20:45:56.163Z,24.29
2018-05-12T20:48:23.761Z,24.23
2018-05-12T20:50:51.379Z,24.19
2018-05-12T20:53:18.927Z,24.16
2018-05-12T20:55:46.505Z,24.13
2018-05-12T20:58:14.047Z,24.10
2018-05-12T21:00:41.677Z,24.05
2018-05-12T21:03:10.061Z,24.01
2018-05-12T21:05:37.568Z,23.97
2018-05-12T21:08:05.133Z,23.92
2018-05-12T21:10:32.827Z,23.89
2018-05-12T21:13:00.385Z,23.84
2018-05-12T21:15:28.106Z,23.81
2018-05-12T21:17:55.681Z,23.78
2018-05-12T21:20:23.265Z,23.75
2018-05-12T21:22:50.912Z,23.72
2018-05-12T21:25:18.478Z,23.68
2018-05-12T21:27:46.064Z,23.62
2018-05-12T21:30:13.641Z,23.60
2018-05-12T21:32:41.186Z,23.55
2018-05-12T21:35:08.773Z,23.53
2018-05-12T21:37:36.337Z,23.50
2018-05-12T21:40:03.907Z,23.48
2018-05-12T21:42:31.468Z,23.47
2018-05-12T21:44:59.080Z,23.44
2018-05-12T21:47:26.729Z,23.42
2018-05-12T21:49:54.290Z,23.40
2018-05-12T21:52:21.883Z,23.37
2018-05-12T21:54:49.484Z,23.36
2018-05-12T21:57:17.095Z,23.34
2018-05-12T21:59:44.643Z,23.32
2018-05-12T22:02:12.261Z,23.29
2018-05-12T22:04:39.833Z,23.27
2018-05-12T22:07:07.457Z,23.27
2018-05-12T22:09:35.031Z,23.26
2018-05-12T22:12:02.600Z,23.22
2018-05-12T22:14:30.122Z,23.29
2018-05-12T22:16:57.764Z,23.31
2018-05-12T22:19:25.342Z,23.30
2018-05-12T22:21:52.947Z,23.29
2018-05-12T22:24:20.467Z,23.26
2018-05-12T22:26:48.058Z,23.21
2018-05-12T22:29:15.588Z,23.17
2018-05-12T22:31:43.148Z,23.15
2018-05-12T22:34:10.693Z,23.14
2018-05-12T22:36:38.329Z,23.14
2018-05-12T22:39:05.889Z,23.15
2018-05-12T22:41:33.418Z,23.15
2018-05-12T22:44:00.973Z,23.14
2018-05-12T22:46:28.547Z,23.15
2018-05-12T22:48:56.122Z,23.17
2018-05-12T22:51:23.662Z,23.17
2018-05-12T22:53:51.273Z,23.18
2018-05-12T22:56:20.497Z,23.10
2018-05-12T22:58:48.071Z,23.15
2018-05-12T23:01:15.648Z,23.13
2018-05-12T23:03:43.254Z,23.12
2018-05-12T23:06:10.847Z,23.10
2018-05-12T23:08:38.454Z,23.09
2018-05-12T23:11:06.103Z,23.08
2018-05-12T23:13:33.682Z,23.06
2018-05-12T23:16:01.248Z,23.02
2018-05-12T23:18:28.881Z,23.00
2018-05-12T23:20:56.520Z,22.95
2018-05-12T23:23:24.146Z,22.92
2018-05-12T23:25:51.731Z,22.90
2018-05-12T23:28:19.344Z,22.88
2018-05-12T23:30:46.908Z,22.85
2018-05-12T23:33:14.506Z,22.82
2018-05-12T23:35:42.569Z,22.80
2018-05-12T23:38:10.160Z,22.77
2018-05-12T23:40:37.756Z,22.73
2018-05-12T23:43:05.353Z,22.70
2018-05-12T23:45:32.937Z,22.66
2018-05-12T23:48:00.509Z,22.63
2018-05-12T23:50:28.120Z,22.59
2018-05-12T23:52:55.710Z,22.57
2018-05-12T23:55:23.282Z,22.55
2018-05-12T23:57:50.852Z,22.54
